createdAt,value
2018-12-20T00:01:53.836Z,4.90
2018-12-20T00:04:22.544Z,4.90
2018-12-20T00:06:56.049Z,4.90
2018-12-20T00:09:29.973Z,4.90
2018-12-20T00:11:58.451Z,4.90
2018-12-20T00:14:30.129Z,5.00
2018-12-20T00:17:03.081Z,5.00
2018-12-20T00:19:31.769Z,5.00
2018-12-20T00:22:00.279Z,5.00
2018-12-20T00:24:29.693Z,5.00
2018-12-20T00:26:59.564Z,5.00
2018-12-20T00:29:30.227Z,5.00
2018-12-20T00:31:58.795Z,5.00
2018-12-20T00:34:27.848Z,5.00
2018-12-20T00:36:56.258Z,5.00
2018-12-20T00:39:24.688Z,5.00
2018-12-20T00:41:54.484Z,5.00
2018-12-20T00:44:26.795Z,4.90
2018-12-20T00:46:59.247Z,5.00
2018-12-20T00:49:29.383Z,5.00
2018-12-20T00:52:00.034Z,5.00
2018-12-20T00:54:28.977Z,5.00
2018-12-20T00:56:57.779Z,5.00
2018-12-20T00:59:31.122Z,5.00
2018-12-20T01:02:01.304Z,4.90
2018-12-20T01:04:29.852Z,4.90
2018-12-20T01:06:58.431Z,4.90
2018-12-20T01:09:26.965Z,4.90
2018-12-20T01:11:55.474Z,4.90
2018-12-20T01:14:24.193Z,4.90
2018-12-20T01:16:53.480Z,4.90
2018-12-20T01:19:22.253Z,4.90
2018-12-20T01:21:51.805Z,4.80
2018-12-20T01:24:20.378Z,4.80
2018-12-20T01:26:48.854Z,4.80
2018-12-20T01:29:17.414Z,4.80
2018-12-20T01:31:46.226Z,4.80
2018-12-20T01:34:14.854Z,4.80
2018-12-20T01:36:43.370Z,4.80
2018-12-20T01:39:11.862Z,4.80
2018-12-20T01:41:40.459Z,4.90
2018-12-20T01:44:09.076Z,4.90
2018-12-20T01:46:37.691Z,4.90
2018-12-20T01:49:06.284Z,4.90
2018-12-20T01:51:34.902Z,5.00
2018-12-20T01:54:04.155Z,5.00
2018-12-20T01:56:32.788Z,5.10
2018-12-20T01:59:01.422Z,5.10
2018-12-20T02:01:29.965Z,5.10
2018-12-20T02:03:58.478Z,5.10
2018-12-20T02:06:27.005Z,5.20
2018-12-20T02:08:55.678Z,5.20
2018-12-20T02:11:24.291Z,5.20
2018-12-20T02:13:52.836Z,5.30
2018-12-20T02:16:21.263Z,5.30
2018-12-20T02:18:49.673Z,5.30
2018-12-20T02:21:18.313Z,5.30
2018-12-20T02:23:46.979Z,5.30
2018-12-20T02:26:15.465Z,5.30
2018-12-20T02:28:43.951Z,5.40
2018-12-20T02:31:12.543Z,5.40
2018-12-20T02:33:40.948Z,5.40
2018-12-20T02:36:09.366Z,5.40
2018-12-20T02:38:37.836Z,5.40
2018-12-20T02:41:06.322Z,5.40
2018-12-20T02:43:34.843Z,5.50
2018-12-20T02:46:03.664Z,5.50
2018-12-20T02:48:32.164Z,5.50
2018-12-20T02:51:00.743Z,5.50
2018-12-20T02:53:29.346Z,5.50
2018-12-20T02:55:57.936Z,5.50
2018-12-20T02:58:26.720Z,5.50
2018-12-20T03:00:55.291Z,5.50
2018-12-20T03:03:23.835Z,5.50
2018-12-20T03:05:52.512Z,5.50
2018-12-20T03:08:22.239Z,5.40
2018-12-20T03:10:50.691Z,5.40
2018-12-20T03:13:19.157Z,5.50
2018-12-20T03:15:47.922Z,5.50
2018-12-20T03:18:16.376Z,5.50
2018-12-20T03:20:44.766Z,5.40
2018-12-20T03:23:13.211Z,5.40
2018-12-20T03:25:41.791Z,5.40
2018-12-20T03:28:10.276Z,5.40
2018-12-20T03:30:38.877Z,5.40
2018-12-20T03:33:10.374Z,5.40
2018-12-20T03:35:38.030Z,5.40
2018-12-20T03:38:06.452Z,5.40
2018-12-20T03:40:35.220Z,5.40
2018-12-20T03:43:06.133Z,5.40
2018-12-20T03:45:34.734Z,5.40
2018-12-20T03:48:03.786Z,5.40
2018-12-20T03:50:32.472Z,5.40
2018-12-20T03:53:00.944Z,5.40
2018-12-20T03:55:29.410Z,5.40
2018-12-20T03:57:57.938Z,5.40
2018-12-20T04:00:26.450Z,5.40
2018-12-20T04:02:54.995Z,5.40
2018-12-20T04:05:23.663Z,5.40
2018-12-20T04:07:52.491Z,5.40
2018-12-20T04:10:21.180Z,5.40
2018-12-20T04:12:49.878Z,5.40
2018-12-20T04:15:18.577Z,5.40
2018-12-20T04:17:47.153Z,5.40
2018-12-20T04:20:15.597Z,5.30
2018-12-20T04:22:44.009Z,5.30
2018-12-20T04:25:12.770Z,5.30
2018-12-20T04:27:41.664Z,5.20
2018-12-20T04:30:10.191Z,5.20
2018-12-20T04:32:38.786Z,5.30
2018-12-20T04:35:08.583Z,5.20
2018-12-20T04:37:37.111Z,5.20
2018-12-20T04:40:07.967Z,5.20
2018-12-20T04:42:36.680Z,5.30
2018-12-20T04:45:05.637Z,5.30
2018-12-20T04:47:34.164Z,5.30
2018-12-20T04:50:02.677Z,5.30
2018-12-20T04:52:31.517Z,5.30
2018-12-20T04:55:00.343Z,5.30
2018-12-20T04:57:29.076Z,5.30
2018-12-20T04:59:57.734Z,5.30
2018-12-20T05:02:26.284Z,5.30
2018-12-20T05:04:54.924Z,5.30
2018-12-20T05:07:23.462Z,5.30
2018-12-20T05:09:52.157Z,5.30
2018-12-20T05:12:20.793Z,5.30
2018-12-20T05:14:49.433Z,5.40
2018-12-20T05:17:17.968Z,5.30
2018-12-20T05:19:46.354Z,5.30
2018-12-20T05:22:15.117Z,5.30
2018-12-20T05:24:44.330Z,5.30
2018-12-20T05:27:12.861Z,5.30
2018-12-20T05:29:41.403Z,5.30
2018-12-20T05:32:10.053Z,5.30
2018-12-20T05:34:45.177Z,5.30
2018-12-20T05:37:13.748Z,5.30
2018-12-20T05:39:42.218Z,5.30
2018-12-20T05:42:10.794Z,5.30
2018-12-20T05:44:39.270Z,5.30
2018-12-20T05:47:08.027Z,5.30
2018-12-20T05:49:36.628Z,5.40
2018-12-20T05:52:05.154Z,5.40
2018-12-20T05:54:33.770Z,5.40
2018-12-20T05:57:02.845Z,5.50
2018-12-20T05:59:31.510Z,5.50
2018-12-20T06:02:01.122Z,5.50
2018-12-20T06:04:42.882Z,5.50
2018-12-20T06:07:11.635Z,5.50
2018-12-20T06:09:45.604Z,5.50
2018-12-20T06:12:14.259Z,5.50
2018-12-20T06:14:42.986Z,5.50
2018-12-20T06:17:14.848Z,5.60
2018-12-20T06:24:48.369Z,5.50
2018-12-20T06:27:16.777Z,5.50
2018-12-20T06:29:45.233Z,5.50
2018-12-20T06:32:13.644Z,5.50
2018-12-20T06:34:42.139Z,5.50
2018-12-20T06:37:11.310Z,5.60
2018-12-20T06:39:39.755Z,5.60
2018-12-20T06:42:08.171Z,5.60
2018-12-20T06:44:37.121Z,5.60
2018-12-20T06:47:05.609Z,5.60
2018-12-20T06:49:34.117Z,5.60
2018-12-20T06:52:02.519Z,5.60
2018-12-20T06:54:33.363Z,5.60
2018-12-20T06:57:01.873Z,5.70
2018-12-20T06:59:30.326Z,5.80
2018-12-20T07:01:58.847Z,5.80
2018-12-20T07:04:27.247Z,5.80
2018-12-20T07:06:55.679Z,5.80
2018-12-20T07:09:24.206Z,5.80
2018-12-20T07:11:52.681Z,5.80
2018-12-20T07:14:21.101Z,5.80
2018-12-20T07:16:49.742Z,5.80
2018-12-20T07:19:18.266Z,5.80
2018-12-20T07:21:46.638Z,5.80
2018-12-20T07:24:18.397Z,5.90
2018-12-20T07:26:46.889Z,5.90
2018-12-20T07:29:17.139Z,5.90
2018-12-20T07:31:48.613Z,5.90
2018-12-20T07:34:19.007Z,5.90
2018-12-20T07:36:47.455Z,5.90
2018-12-20T07:39:15.993Z,5.90
2018-12-20T07:41:46.806Z,5.90
2018-12-20T07:44:15.265Z,5.90
2018-12-20T07:46:45.332Z,6.00
2018-12-20T07:49:17.348Z,6.00
2018-12-20T07:51:45.841Z,6.00
2018-12-20T07:54:18.371Z,6.00
2018-12-20T07:56:46.861Z,6.00
2018-12-20T07:59:23.346Z,6.10
2018-12-20T08:01:45.898Z,6.20
2018-12-20T08:04:14.379Z,6.20
2018-12-20T08:06:42.907Z,6.20
2018-12-20T08:09:11.375Z,6.30
2018-12-20T08:11:39.880Z,6.30
2018-12-20T08:14:08.800Z,6.40
2018-12-20T08:16:45.878Z,6.40
2018-12-20T08:19:09.332Z,6.50
2018-12-20T08:21:43.694Z,6.50
2018-12-20T08:24:13.007Z,6.60
2018-12-20T08:26:42.079Z,6.60
2018-12-20T08:29:10.569Z,6.60
2018-12-20T08:31:39.133Z,6.70
2018-12-20T08:39:11.588Z,6.70
2018-12-20T08:41:40.210Z,6.80
2018-12-20T08:44:08.728Z,6.80
2018-12-20T08:46:39.145Z,6.80
2018-12-20T08:49:07.758Z,6.80
2018-12-20T08:51:37.327Z,6.90
2018-12-20T08:54:06.417Z,6.90
2018-12-20T08:56:34.871Z,6.90
2018-12-20T08:59:03.452Z,6.90
2018-12-20T09:01:31.950Z,6.90
2018-12-20T09:04:05.404Z,6.90
2018-12-20T09:06:33.900Z,6.90
2018-12-20T09:09:02.383Z,6.90
2018-12-20T09:11:30.846Z,6.90
2018-12-20T09:13:59.296Z,6.90
2018-12-20T09:16:27.748Z,6.80
2018-12-20T09:18:56.192Z,6.90
2018-12-20T09:21:24.659Z,6.90
2018-12-20T09:23:53.090Z,7.00
2018-12-20T09:26:21.616Z,6.90
2018-12-20T09:28:50.124Z,6.90
2018-12-20T09:31:18.578Z,6.90
2018-12-20T09:33:47.119Z,6.90
2018-12-20T09:36:15.559Z,7.00
2018-12-20T09:38:43.994Z,6.90
2018-12-20T09:41:12.439Z,6.90
2018-12-20T09:43:41.073Z,6.90
2018-12-20T09:46:09.654Z,6.90
2018-12-20T09:48:38.129Z,6.90
2018-12-20T09:51:06.512Z,6.90
2018-12-20T09:53:34.954Z,6.90
2018-12-20T09:56:03.348Z,6.90
2018-12-20T09:58:31.783Z,6.90
2018-12-20T10:01:00.227Z,7.00
2018-12-20T10:03:28.643Z,7.00
2018-12-20T10:05:57.060Z,7.10
2018-12-20T10:08:25.449Z,7.20
2018-12-20T10:10:53.863Z,7.20
2018-12-20T10:13:22.604Z,7.20
2018-12-20T10:15:51.276Z,7.10
2018-12-20T10:18:19.870Z,7.10
2018-12-20T10:20:48.442Z,7.10
2018-12-20T10:23:17.044Z,7.10
2018-12-20T10:25:45.485Z,7.10
2018-12-20T10:28:14.215Z,7.10
2018-12-20T10:30:43.772Z,7.10
2018-12-20T10:33:12.220Z,7.20
2018-12-20T10:35:40.692Z,7.20
2018-12-20T10:38:09.166Z,7.20
2018-12-20T10:40:37.633Z,7.20
2018-12-20T10:43:06.135Z,7.20
2018-12-20T10:45:34.628Z,7.30
2018-12-20T10:48:03.076Z,7.30
2018-12-20T10:50:31.546Z,7.40
2018-12-20T10:52:59.989Z,7.60
2018-12-20T10:55:28.393Z,7.80
2018-12-20T10:57:56.959Z,8.00
2018-12-20T11:00:25.409Z,8.10
2018-12-20T11:02:59.325Z,8.20
2018-12-20T11:05:33.171Z,8.20
2018-12-20T11:08:07.024Z,8.10
2018-12-20T11:10:35.498Z,8.00
2018-12-20T11:13:10.115Z,7.80
2018-12-20T11:15:38.573Z,7.60
2018-12-20T11:18:06.963Z,7.50
2018-12-20T11:20:35.456Z,7.30
2018-12-20T11:23:04.047Z,7.20
2018-12-20T11:25:39.110Z,7.20
2018-12-20T11:28:07.636Z,7.10
2018-12-20T11:30:36.085Z,7.10
2018-12-20T11:33:04.540Z,7.10
2018-12-20T11:35:33.035Z,7.10
2018-12-20T11:38:11.296Z,7.20
2018-12-20T11:40:39.879Z,7.30
2018-12-20T11:43:08.351Z,7.30
2018-12-20T11:45:37.055Z,7.40
2018-12-20T11:48:05.496Z,7.50
2018-12-20T11:50:34.683Z,7.60
2018-12-20T11:53:04.728Z,7.60
2018-12-20T11:55:33.375Z,7.60
2018-12-20T11:58:02.319Z,7.60
2018-12-20T12:03:18.404Z,7.50
2018-12-20T12:05:47.147Z,7.50
2018-12-20T12:08:17.675Z,7.50
2018-12-20T12:10:47.174Z,7.50
2018-12-20T12:13:17.198Z,7.50
2018-12-20T12:15:45.688Z,7.40
2018-12-20T12:18:14.346Z,7.40
2018-12-20T12:20:45.378Z,7.40
2018-12-20T12:23:19.384Z,7.40
2018-12-20T12:25:48.545Z,7.40
2018-12-20T12:28:17.175Z,7.40
2018-12-20T12:30:47.627Z,7.40
2018-12-20T12:33:16.121Z,7.40
2018-12-20T12:35:44.819Z,7.30
2018-12-20T12:38:13.282Z,7.40
2018-12-20T12:40:45.783Z,7.40
2018-12-20T12:43:14.360Z,7.40
2018-12-20T12:45:42.856Z,7.50
2018-12-20T12:48:11.295Z,7.50
2018-12-20T12:50:39.965Z,7.50
2018-12-20T12:53:15.876Z,7.50
2018-12-20T12:55:48.830Z,7.50
2018-12-20T12:58:22.655Z,7.50
2018-12-20T13:00:56.787Z,7.50
2018-12-20T13:03:25.497Z,7.50
2018-12-20T13:05:53.991Z,7.60
2018-12-20T13:08:22.762Z,7.50
2018-12-20T13:10:51.284Z,7.50
2018-12-20T13:13:19.767Z,7.50
2018-12-20T13:15:48.387Z,7.60
2018-12-20T13:18:16.956Z,7.60
2018-12-20T13:20:45.474Z,7.60
2018-12-20T13:23:17.330Z,7.60
2018-12-20T13:25:49.198Z,7.60
2018-12-20T13:28:20.900Z,7.60
2018-12-20T13:30:49.650Z,7.60
2018-12-20T13:33:18.086Z,7.60
2018-12-20T13:35:46.645Z,7.50
2018-12-20T13:38:15.197Z,7.50
2018-12-20T13:40:43.674Z,7.50
2018-12-20T13:43:12.228Z,7.50
2018-12-20T13:45:40.675Z,7.40
2018-12-20T13:48:09.204Z,7.40
2018-12-20T13:50:38.052Z,7.40
2018-12-20T13:53:06.597Z,7.30
2018-12-20T13:55:35.846Z,7.30
2018-12-20T13:58:04.512Z,7.30
2018-12-20T14:00:33.012Z,7.30
2018-12-20T14:03:03.826Z,7.30
2018-12-20T14:05:34.833Z,7.20
2018-12-20T14:08:03.591Z,7.20
2018-12-20T14:10:32.112Z,7.20
2018-12-20T14:13:00.527Z,7.10
2018-12-20T14:15:28.995Z,7.10
2018-12-20T14:17:57.427Z,7.10
2018-12-20T14:20:30.650Z,7.10
2018-12-20T14:22:59.368Z,7.20
2018-12-20T14:25:35.968Z,7.20
2018-12-20T14:31:24.616Z,7.20
2018-12-20T14:33:58.333Z,7.10
2018-12-20T14:36:34.631Z,7.10
2018-12-20T14:39:08.639Z,7.10
2018-12-20T14:41:38.028Z,7.10
2018-12-20T14:44:06.516Z,7.10
2018-12-20T14:46:35.000Z,7.00
2018-12-20T14:49:03.409Z,7.00
2018-12-20T14:51:31.857Z,7.00
2018-12-20T14:54:00.284Z,7.10
2018-12-20T14:56:28.739Z,7.10
2018-12-20T14:59:03.688Z,7.10
2018-12-20T15:01:36.465Z,7.10
2018-12-20T15:04:08.433Z,7.10
2018-12-20T15:06:40.539Z,7.10
2018-12-20T15:09:09.143Z,7.20
2018-12-20T15:11:37.601Z,7.20
2018-12-20T15:14:08.295Z,7.20
2018-12-20T15:16:39.151Z,7.30
2018-12-20T15:19:07.704Z,7.20
2018-12-20T15:21:36.204Z,7.20
2018-12-20T15:24:04.739Z,7.20
2018-12-20T15:26:36.687Z,7.20
2018-12-20T15:29:05.211Z,7.20
2018-12-20T15:31:33.774Z,7.20
2018-12-20T15:34:02.406Z,7.20
2018-12-20T15:36:30.957Z,7.20
2018-12-20T15:38:59.534Z,7.10
2018-12-20T15:41:28.024Z,7.10
2018-12-20T15:43:56.512Z,7.10
2018-12-20T15:46:25.071Z,7.10
2018-12-20T15:48:57.950Z,7.10
2018-12-20T15:51:26.407Z,7.10
2018-12-20T15:54:01.205Z,7.20
2018-12-20T15:56:31.938Z,7.20
2018-12-20T15:59:03.186Z,7.30
2018-12-20T16:01:32.640Z,7.30
2018-12-20T16:04:02.295Z,7.30
2018-12-20T16:06:30.807Z,7.30
2018-12-20T16:08:59.304Z,7.30
2018-12-20T16:11:27.926Z,7.30
2018-12-20T16:13:56.406Z,7.30
2018-12-20T16:16:25.016Z,7.30
2018-12-20T16:18:53.571Z,7.30
2018-12-20T16:21:22.195Z,7.40
2018-12-20T16:23:50.788Z,7.40
2018-12-20T16:26:19.415Z,7.40
2018-12-20T16:28:48.175Z,7.40
2018-12-20T16:31:17.614Z,7.40
2018-12-20T16:33:46.251Z,7.40
2018-12-20T16:36:15.125Z,7.30
2018-12-20T16:38:44.656Z,7.30
2018-12-20T16:41:13.581Z,7.20
2018-12-20T16:43:42.304Z,7.20
2018-12-20T16:46:13.630Z,7.20
2018-12-20T16:48:42.603Z,7.20
2018-12-20T16:51:11.200Z,7.20
2018-12-20T16:53:39.742Z,7.20
2018-12-20T16:58:46.949Z,7.30
2018-12-20T17:01:22.487Z,7.30
2018-12-20T17:03:51.710Z,7.30
2018-12-20T17:06:20.740Z,7.30
2018-12-20T17:08:52.727Z,7.20
2018-12-20T17:11:21.413Z,7.20
2018-12-20T17:13:49.931Z,7.20
2018-12-20T17:16:23.203Z,7.20
2018-12-20T17:18:51.729Z,7.20
2018-12-20T17:21:20.282Z,7.20
2018-12-20T17:23:48.731Z,7.10
2018-12-20T17:26:17.239Z,7.10
2018-12-20T17:28:45.789Z,7.10
2018-12-20T17:31:14.844Z,7.10
2018-12-20T17:33:43.527Z,7.10
2018-12-20T17:36:12.758Z,7.10
2018-12-20T17:38:43.738Z,7.10
2018-12-20T17:41:12.251Z,7.10
2018-12-20T17:43:40.717Z,7.10
2018-12-20T17:46:09.140Z,7.00
2018-12-20T17:48:37.695Z,7.00
2018-12-20T17:51:06.213Z,7.00
2018-12-20T17:53:34.649Z,7.00
2018-12-20T17:56:03.122Z,7.10
2018-12-20T17:58:32.479Z,7.10
2018-12-20T18:01:01.000Z,7.20
2018-12-20T18:03:29.822Z,7.20
2018-12-20T18:06:07.724Z,7.20
2018-12-20T18:08:36.427Z,7.20
2018-12-20T18:11:04.967Z,7.20
2018-12-20T18:13:33.598Z,7.20
2018-12-20T18:16:02.053Z,7.20
2018-12-20T18:18:30.580Z,7.20
2018-12-20T18:20:59.071Z,7.20
2018-12-20T18:23:27.554Z,7.30
2018-12-20T18:25:56.041Z,7.30
2018-12-20T18:28:24.663Z,7.30
2018-12-20T18:30:53.140Z,7.30
2018-12-20T18:33:21.580Z,7.30
2018-12-20T18:35:50.722Z,7.30
2018-12-20T18:38:19.256Z,7.20
2018-12-20T18:40:47.803Z,7.20
2018-12-20T18:43:16.249Z,7.20
2018-12-20T18:45:44.744Z,7.20
2018-12-20T18:48:13.263Z,7.20
2018-12-20T18:50:41.756Z,7.30
2018-12-20T18:53:10.326Z,7.30
2018-12-20T18:55:43.183Z,7.30
2018-12-20T18:58:14.502Z,7.30
2018-12-20T19:00:46.710Z,7.30
2018-12-20T19:03:17.158Z,7.40
2018-12-20T19:05:45.854Z,7.40
2018-12-20T19:08:18.351Z,7.40
2018-12-20T19:10:47.836Z,7.30
2018-12-20T19:13:16.834Z,7.30
2018-12-20T19:15:46.265Z,7.30
2018-12-20T19:18:23.034Z,7.20
2018-12-20T19:20:52.296Z,7.20
2018-12-20T19:23:21.035Z,7.20
2018-12-20T19:25:49.602Z,7.20
2018-12-20T19:28:18.045Z,7.10
2018-12-20T19:30:46.577Z,7.00
2018-12-20T19:33:15.073Z,7.10
2018-12-20T19:35:43.612Z,7.00
2018-12-20T19:38:20.242Z,7.00
2018-12-20T19:40:45.368Z,7.00
2018-12-20T19:43:14.290Z,7.00
2018-12-20T19:45:46.186Z,7.10
2018-12-20T19:48:13.206Z,7.10
2018-12-20T19:50:41.663Z,7.00
2018-12-20T19:53:10.417Z,7.10
2018-12-20T19:55:38.950Z,7.10
2018-12-20T19:58:07.482Z,7.10
2018-12-20T20:00:35.988Z,7.20
2018-12-20T20:03:04.472Z,7.20
2018-12-20T20:05:32.888Z,7.20
2018-12-20T20:08:02.765Z,7.20
2018-12-20T20:10:31.351Z,7.20
2018-12-20T20:12:59.878Z,7.20
2018-12-20T20:15:28.422Z,7.20
2018-12-20T20:17:56.991Z,7.20
2018-12-20T20:20:25.489Z,7.20
2018-12-20T20:22:53.976Z,7.20
2018-12-20T20:25:22.575Z,7.30
2018-12-20T20:27:50.990Z,7.30
2018-12-20T20:30:19.425Z,7.30
2018-12-20T20:32:47.933Z,7.20
2018-12-20T20:35:16.484Z,7.20
2018-12-20T20:37:44.925Z,7.20
2018-12-20T20:40:13.398Z,7.20
2018-12-20T20:42:41.899Z,7.20
2018-12-20T20:45:10.593Z,7.20
2018-12-20T20:47:39.490Z,7.20
2018-12-20T20:50:09.033Z,7.20
2018-12-20T20:52:37.665Z,7.20
2018-12-20T20:55:08.195Z,7.20
2018-12-20T20:57:37.114Z,7.30
2018-12-20T21:00:10.161Z,7.30
2018-12-20T21:02:38.660Z,7.30
2018-12-20T21:05:08.595Z,7.30
2018-12-20T21:07:37.271Z,7.30
2018-12-20T21:10:07.352Z,7.30
2018-12-20T21:12:35.929Z,7.40
2018-12-20T21:15:05.165Z,7.40
2018-12-20T21:17:33.573Z,7.30
2018-12-20T21:20:02.072Z,7.30
2018-12-20T21:22:30.536Z,7.30
2018-12-20T21:24:58.953Z,7.30
2018-12-20T21:27:27.433Z,7.30
2018-12-20T21:29:55.914Z,7.40
2018-12-20T21:32:24.338Z,7.40
2018-12-20T21:34:52.791Z,7.30
2018-12-20T21:37:21.268Z,7.30
2018-12-20T21:39:49.692Z,7.30
2018-12-20T21:42:18.183Z,7.20
2018-12-20T21:44:46.621Z,7.30
2018-12-20T21:47:15.129Z,7.30
2018-12-20T21:49:43.962Z,7.30
2018-12-20T21:52:12.810Z,7.40
2018-12-20T21:54:42.791Z,7.40
2018-12-20T21:57:11.281Z,7.50
2018-12-20T21:59:40.749Z,7.50
2018-12-20T22:02:15.298Z,7.50
2018-12-20T22:07:47.663Z,7.50
2018-12-20T22:10:16.101Z,7.50
2018-12-20T22:12:47.680Z,7.50
2018-12-20T22:15:28.366Z,7.50
2018-12-20T22:18:01.329Z,7.40
2018-12-20T22:20:29.802Z,7.40
2018-12-20T22:23:05.209Z,7.40
2018-12-20T22:25:33.882Z,7.40
2018-12-20T22:28:02.407Z,7.40
2018-12-20T22:30:31.976Z,7.40
2018-12-20T22:33:01.593Z,7.40
2018-12-20T22:35:36.085Z,7.40
2018-12-20T22:38:04.588Z,7.30
2018-12-20T22:40:33.127Z,7.30
2018-12-20T22:43:01.590Z,7.30
2018-12-20T22:45:35.965Z,7.30
2018-12-20T22:48:05.636Z,7.40
2018-12-20T22:50:34.063Z,7.40
2018-12-20T22:53:02.515Z,7.50
2018-12-20T22:55:30.930Z,7.50
2018-12-20T22:58:07.530Z,7.50
2018-12-20T23:00:36.467Z,7.50
2018-12-20T23:03:07.790Z,7.50
2018-12-20T23:05:36.234Z,7.60
2018-12-20T23:08:04.725Z,7.70
2018-12-20T23:10:33.349Z,7.70
2018-12-20T23:13:02.702Z,7.70
2018-12-20T23:15:31.291Z,7.70
2018-12-20T23:17:59.730Z,7.70
2018-12-20T23:20:28.199Z,7.70
2018-12-20T23:22:56.613Z,7.70
2018-12-20T23:25:24.955Z,7.70
2018-12-20T23:27:53.404Z,7.70
2018-12-20T23:30:21.850Z,7.70
2018-12-20T23:32:50.289Z,7.70
2018-12-20T23:35:18.685Z,7.70
2018-12-20T23:37:47.074Z,7.70
2018-12-20T23:40:15.528Z,7.60
2018-12-20T23:42:43.974Z,7.60
2018-12-20T23:45:12.421Z,7.60
2018-12-20T23:47:41.761Z,7.60
2018-12-20T23:50:10.378Z,7.60
2018-12-20T23:52:38.876Z,7.60
2018-12-20T23:55:07.623Z,7.60
2018-12-20T23:57:36.084Z,7.60
